Time;durP1;ratioP1;P1;durP2;ratioP2;P2;SDS_P1;SDS_P2;PMS_P1;PMS_P2;Temp;Humidity;BMP_temperature;BMP_pressure;BME280_temperature;BME280_humidity;BME280_pressure;Samples;Min_cycle;Max_cycle;Signal;HPM_P1;HPM_P2
2022/06/06 00:00:48;;;;;;;2.08;1.23;;;;;;;23.10;55.74;99350.59;5028380;28;20060;-87
2022/06/06 00:03:15;;;;;;;1.92;1.17;;;;;;;23.04;55.87;99347.34;5027945;28;20443;-86
2022/06/06 00:05:42;;;;;;;1.08;0.88;;;;;;;22.88;55.61;99301.88;5029415;28;20124;-86
2022/06/06 00:08:09;;;;;;;2.20;0.80;;;;;;;23.26;55.90;99334.19;5039676;28;20032;-88
2022/06/06 00:10:35;;;;;;;1.85;1.17;;;;;;;23.21;55.79;99304.94;5041043;28;20026;-87
2022/06/06 00:13:00;;;;;;;2.45;1.00;;;;;;;23.27;56.15;99330.53;5028032;28;20040;-88
2022/06/06 00:15:26;;;;;;;2.35;1.23;;;;;;;23.34;56.41;99337.16;5028924;28;20037;-88
2022/06/06 00:17:51;;;;;;;0.80;0.63;;;;;;;23.37;55.97;99345.91;5041604;28;20048;-90
2022/06/06 00:20:17;;;;;;;0.85;0.70;;;;;;;23.29;55.50;99318.66;5048820;28;20111;-87
2022/06/06 00:22:43;;;;;;;1.83;0.88;;;;;;;23.24;54.76;99296.63;5048180;28;20490;-87
2022/06/06 00:25:09;;;;;;;1.48;1.10;;;;;;;23.28;55.28;99314.28;5047933;28;20059;-89
2022/06/06 00:27:35;;;;;;;1.65;0.90;;;;;;;23.22;55.10;99329.03;5032934;28;20037;-86
2022/06/06 00:30:01;;;;;;;1.48;0.95;;;;;;;23.01;55.46;99298.28;5027868;28;20053;-87
2022/06/06 00:35:11;;;;;;;2.72;1.20;;;;;;;23.12;55.43;99311.00;5028888;28;20045;-89
2022/06/06 00:37:39;;;;;;;1.83;0.80;;;;;;;23.03;55.69;99296.34;5047204;28;20072;-87
2022/06/06 00:40:07;;;;;;;2.03;1.23;;;;;;;23.20;55.27;99293.31;5048007;28;20036;-87
2022/06/06 00:42:38;;;;;;;1.15;0.85;;;;;;;23.29;54.72;99315.97;5047538;28;20055;-87
2022/06/06 00:45:28;;;;;;;3.80;1.55;;;;;;;23.31;54.73;99323.94;5030812;28;20045;-88
2022/06/06 00:48:08;;;;;;;1.38;1.17;;;;;;;23.34;54.80;99327.28;5034607;28;20120;-86
2022/06/06 00:50:43;;;;;;;2.42;1.00;;;;;;;23.28;55.50;99322.34;5047654;28;20041;-86
2022/06/06 00:53:10;;;;;;;4.00;0.80;;;;;;;23.05;55.78;99279.13;5046931;28;20042;-87
2022/06/06 00:55:41;;;;;;;1.10;1.00;;;;;;;23.09;56.38;99306.69;5045880;28;20021;-86
2022/06/06 00:58:12;;;;;;;2.42;1.38;;;;;;;23.20;55.43;99298.72;5036936;28;20041;-86
2022/06/06 01:00:39;;;;;;;1.70;0.60;;;;;;;23.10;55.65;99294.97;5048202;28;20116;-86
2022/06/06 01:03:07;;;;;;;5.50;2.20;;;;;;;22.95;55.91;99267.31;5047228;28;20031;-86
2022/06/06 01:05:35;;;;;;;1.90;1.05;;;;;;;22.63;56.52;99240.09;5045019;28;20033;-85
2022/06/06 01:08:01;;;;;;;1.35;0.80;;;;;;;22.63;57.57;99261.59;5027057;28;20034;-87
2022/06/06 01:10:26;;;;;;;2.05;1.20;;;;;;;22.65;57.77;99259.66;5027418;28;20052;-88
2022/06/06 01:12:55;;;;;;;1.60;1.13;;;;;;;22.71;57.49;99268.13;5020619;28;20038;-88
2022/06/06 01:15:24;;;;;;;1.30;1.10;;;;;;;22.47;58.21;99272.59;5007734;28;20033;-87
2022/06/06 01:18:31;;;;;;;1.67;1.20;;;;;;;22.67;57.72;99277.38;5046734;28;20025;-87
2022/06/06 01:21:02;;;;;;;1.42;0.90;;;;;;;22.68;57.65;99297.09;5040782;28;20057;-90
2022/06/06 01:23:48;;;;;;;0.98;0.90;;;;;;;22.83;57.09;99300.47;5027230;28;20033;-88
2022/06/06 01:26:31;;;;;;;1.90;0.98;;;;;;;22.76;57.22;99297.38;5031921;28;20156;-87
2022/06/06 01:29:24;;;;;;;1.92;0.98;;;;;;;22.59;58.41;99260.97;5033437;28;20061;-87
2022/06/06 01:31:55;;;;;;;2.00;1.20;;;;;;;22.59;59.25;99278.94;5027017;28;20112;-87
2022/06/06 01:34:28;;;;;;;1.63;1.10;;;;;;;22.42;58.73;99256.78;5028756;28;20033;-87
2022/06/06 01:36:56;;;;;;;3.00;1.35;;;;;;;22.09;59.03;99222.38;5031149;28;20079;-88
2022/06/06 01:39:25;;;;;;;1.58;0.85;;;;;;;22.28;59.27;99263.09;5032241;28;20049;-86
2022/06/06 01:42:08;;;;;;;2.88;1.40;;;;;;;22.19;58.55;99258.38;5031015;28;20110;-86
2022/06/06 01:44:56;;;;;;;4.30;1.42;;;;;;;22.06;59.32;99253.03;5031783;28;20069;-90
2022/06/06 01:47:29;;;;;;;1.50;0.77;;;;;;;21.90;59.07;99210.25;5031277;28;20026;-87
2022/06/06 01:49:55;;;;;;;1.00;0.80;;;;;;;22.03;58.00;99225.50;5031195;28;20416;-87
2022/06/06 01:52:21;;;;;;;3.20;1.73;;;;;;;22.10;57.80;99240.22;5043963;28;20118;-87
2022/06/06 01:54:47;;;;;;;1.23;0.88;;;;;;;22.04;58.53;99229.91;5051376;28;20087;-87
2022/06/06 01:57:16;;;;;;;1.55;0.82;;;;;;;21.79;59.39;99228.94;5051135;28;20102;-87
2022/06/06 01:59:41;;;;;;;2.08;0.95;;;;;;;21.46;60.01;99179.28;5051556;28;20120;-87
2022/06/06 02:02:07;;;;;;;3.53;1.65;;;;;;;21.90;59.77;99234.41;5047609;28;20120;-87
2022/06/06 02:04:32;;;;;;;1.95;0.88;;;;;;;22.05;59.79;99250.44;5049291;28;20415;-87
2022/06/06 02:06:58;;;;;;;0.65;0.63;;;;;;;21.98;59.73;99237.44;5041892;28;20032;-86
2022/06/06 02:09:24;;;;;;;2.25;1.60;;;;;;;21.89;60.09;99231.81;5050955;28;20029;-86
2022/06/06 02:11:49;;;;;;;1.55;1.10;;;;;;;21.92;60.00;99240.56;5038126;28;20069;-89
2022/06/06 02:14:15;;;;;;;1.33;0.75;;;;;;;21.86;60.50;99227.56;5032125;28;20489;-88
2022/06/06 02:16:41;;;;;;;2.05;1.15;;;;;;;22.06;59.96;99236.91;5029711;28;20044;-86
2022/06/06 02:19:07;;;;;;;1.67;1.15;;;;;;;21.95;60.42;99221.53;5046834;28;20048;-88
2022/06/06 02:21:33;;;;;;;1.38;0.90;;;;;;;22.03;60.26;99209.38;5033751;28;20106;-86
2022/06/06 02:24:00;;;;;;;1.90;1.08;;;;;;;21.80;60.63;99198.44;5031835;28;20532;-86
2022/06/06 02:26:26;;;;;;;1.88;1.05;;;;;;;22.05;60.89;99234.31;5043349;28;20052;-86
2022/06/06 02:28:51;;;;;;;1.42;0.85;;;;;;;21.87;61.30;99221.19;5031453;28;20483;-87
2022/06/06 02:31:17;;;;;;;1.83;1.42;;;;;;;21.99;61.22;99230.25;5031058;28;20120;-88
2022/06/06 02:33:42;;;;;;;3.00;1.85;;;;;;;21.68;60.96;99201.97;5031797;28;20038;-88
2022/06/06 02:36:08;;;;;;;1.85;0.95;;;;;;;21.59;61.02;99171.25;5030112;28;20038;-87
2022/06/06 02:38:34;;;;;;;1.30;0.80;;;;;;;21.81;61.70;99210.88;5030473;28;20025;-88
2022/06/06 02:41:07;;;;;;;1.63;1.05;;;;;;;21.61;62.26;99218.50;5040639;28;20051;-88
2022/06/06 02:43:42;;;;;;;0.80;0.70;;;;;;;21.70;62.63;99225.03;5030872;28;20025;-88
2022/06/06 02:46:09;;;;;;;4.80;2.13;;;;;;;21.70;62.87;99242.97;5028578;28;20033;-86
2022/06/06 02:48:34;;;;;;;1.67;1.08;;;;;;;21.73;62.61;99232.03;5032295;28;20041;-87
2022/06/06 02:51:00;;;;;;;1.42;0.80;;;;;;;21.67;62.28;99200.25;5035790;28;20451;-87
2022/06/06 02:53:26;;;;;;;1.08;0.95;;;;;;;21.64;63.24;99204.00;5030706;28;20112;-86
2022/06/06 02:55:53;;;;;;;2.97;1.48;;;;;;;21.77;63.14;99218.31;5029135;28;20040;-85
2022/06/06 02:58:20;;;;;;;3.35;1.75;;;;;;;21.75;63.30;99220.25;5029810;28;20041;-85
2022/06/06 03:00:47;;;;;;;0.98;0.68;;;;;;;21.97;62.86;99224.13;5029264;28;20022;-88
2022/06/06 03:03:13;;;;;;;1.30;0.93;;;;;;;21.63;63.58;99184.34;5025104;28;20075;-83
2022/06/06 03:06:01;;;;;;;0.80;0.80;;;;;;;22.02;63.13;99235.41;5015629;28;20046;-87
2022/06/06 03:08:30;;;;;;;1.48;1.13;;;;;;;21.77;63.62;99228.19;5017864;28;20033;-87
2022/06/06 03:11:26;;;;;;;1.52;1.05;;;;;;;21.49;64.74;99248.84;5029453;28;20037;-84
2022/06/06 03:14:05;;;;;;;4.53;1.70;;;;;;;21.46;64.71;99255.25;5028220;28;20132;-85
2022/06/06 03:22:45;;;;;;;1.42;1.08;;;;;;;21.52;64.75;99267.44;5038869;28;20056;-86
2022/06/06 03:25:10;;;;;;;2.20;1.70;;;;;;;21.47;64.74;99285.59;5034426;28;20812;-83
2022/06/06 03:27:44;;;;;;;1.67;0.98;;;;;;;21.33;65.26;99288.34;5035641;28;20032;-86
2022/06/06 03:30:28;;;;;;;2.08;1.20;;;;;;;21.03;66.61;99330.47;5041715;28;20509;-82
2022/06/06 03:33:02;;;;;;;1.27;0.90;;;;;;;20.73;67.40;99406.50;5028840;28;20035;-85
2022/06/06 03:35:40;;;;;;;2.33;1.50;;;;;;;20.72;66.51;99481.66;5049218;28;20047;-85
2022/06/06 03:38:31;;;;;;;2.33;1.52;;;;;;;20.75;65.04;99494.88;5049742;28;20033;-87
2022/06/06 03:41:12;;;;;;;6.72;1.88;;;;;;;20.96;65.58;99499.88;5035557;28;20080;-86
2022/06/06 03:43:50;;;;;;;1.75;0.82;;;;;;;21.02;68.33;99535.22;5037148;28;20072;-86
2022/06/06 03:46:30;;;;;;;0.85;0.38;;;;;;;20.75;73.36;99591.34;5039249;28;20060;-92
2022/06/06 03:49:16;;;;;;;1.95;1.42;;;;;;;20.73;76.10;99601.31;5028079;28;20037;-91
2022/06/06 03:52:18;;;;;;;2.08;1.40;;;;;;;20.14;79.93;99579.63;5036237;28;20044;-87
2022/06/06 03:55:07;;;;;;;9.82;3.10;;;;;;;20.26;84.85;99637.00;4990999;28;20092;-89
2022/06/06 03:57:35;;;;;;;2.92;2.40;;;;;;;19.92;88.08;99650.44;5027330;28;20044;-93
2022/06/06 04:00:06;;;;;;;1.25;1.00;;;;;;;19.87;92.22;99657.84;5027375;28;20033;-91
2022/06/06 04:02:36;;;;;;;2.03;0.85;;;;;;;19.32;94.46;99626.81;5032351;28;20071;-94
2022/06/06 04:05:10;;;;;;;3.45;2.30;;;;;;;19.40;94.84;99643.34;5046994;28;20033;-95
2022/06/06 04:07:35;;;;;;;1.33;1.10;;;;;;;19.54;96.65;99639.97;5036450;28;20493;-90
2022/06/06 04:10:01;;;;;;;2.75;2.08;;;;;;;19.35;97.88;99618.63;5046550;28;20151;-92
2022/06/06 04:12:40;;;;;;;1.67;1.13;;;;;;;19.47;99.51;99627.84;5043465;28;20030;-93
2022/06/06 04:15:14;;;;;;;1.83;1.25;;;;;;;19.43;100.00;99643.19;5028131;28;20079;-92
2022/06/06 04:18:00;;;;;;;1.23;0.65;;;;;;;19.45;100.00;99668.03;5027974;28;20041;-91
2022/06/06 04:21:06;;;;;;;12.98;2.30;;;;;;;19.50;100.00;99655.28;5025690;28;20103;-90
2022/06/06 04:23:37;;;;;;;3.50;2.03;;;;;;;19.58;100.00;99657.56;5006238;28;20046;-92
2022/06/06 04:26:42;;;;;;;0.50;0.50;;;;;;;19.09;100.00;99546.03;5027148;28;20041;-94
2022/06/06 04:29:42;;;;;;;2.65;1.15;;;;;;;19.31;100.00;99585.00;5028179;28;20033;-92
2022/06/06 04:32:30;;;;;;;1.33;1.10;;;;;;;19.68;100.00;99604.44;5027694;28;20033;-91
2022/06/06 04:35:16;;;;;;;2.33;2.08;;;;;;;19.22;100.00;99542.72;5026129;28;20029;-90
2022/06/06 04:38:03;;;;;;;2.28;2.05;;;;;;;19.76;100.00;99594.16;5025546;28;20041;-92
2022/06/06 04:40:43;;;;;;;2.35;1.27;;;;;;;19.45;100.00;99520.06;5027152;28;20033;-91
2022/06/06 04:43:46;;;;;;;5.35;2.88;;;;;;;20.00;100.00;99581.28;5025069;28;20033;-90
2022/06/06 04:46:50;;;;;;;1.13;0.85;;;;;;;20.00;99.89;99565.22;5027048;28;20068;-91
2022/06/06 04:49:16;;;;;;;2.03;1.42;;;;;;;19.83;100.00;99534.06;5026992;28;20079;-91
2022/06/06 04:51:44;;;;;;;1.88;1.30;;;;;;;19.93;100.00;99554.94;5046422;28;20805;-88
2022/06/06 04:54:17;;;;;;;1.73;1.17;;;;;;;19.58;100.00;99490.84;5045790;28;20049;-89
2022/06/06 04:56:44;;;;;;;2.00;1.40;;;;;;;20.10;98.02;99505.81;5045286;28;20045;-91
2022/06/06 04:59:12;;;;;;;2.58;1.88;;;;;;;20.09;96.40;99461.22;5045943;28;20640;-91
2022/06/06 05:01:40;;;;;;;1.90;1.35;;;;;;;20.13;94.54;99439.53;5045014;28;20037;-91
2022/06/06 05:04:12;;;;;;;7.70;2.22;;;;;;;20.55;91.77;99455.84;5045249;28;20024;-90
2022/06/06 05:07:05;;;;;;;1.63;1.20;;;;;;;20.87;91.28;99477.19;5047264;28;20546;-92
2022/06/06 05:09:49;;;;;;;2.08;1.10;;;;;;;20.47;94.32;99472.38;5044841;28;20033;-92
2022/06/06 05:12:34;;;;;;;1.65;0.93;;;;;;;20.92;90.74;99434.84;5036871;28;20037;-92
2022/06/06 05:15:19;;;;;;;3.92;2.60;;;;;;;21.08;89.94;99421.34;5021780;28;20041;-91
2022/06/06 05:18:37;;;;;;;;;;;;;;;;;;;;;
2022/06/06 05:21:11;;;;;;;2.28;1.30;;;;;;;21.14;89.21;99404.88;5027121;28;20037;-90
2022/06/06 05:24:13;;;;;;;2.47;1.88;;;;;;;21.32;87.36;99440.41;5030534;28;20056;-90
2022/06/06 05:27:10;;;;;;;1.35;1.10;;;;;;;21.42;85.67;99457.63;5047157;28;20033;-90
2022/06/06 05:29:44;;;;;;;2.70;1.20;;;;;;;21.70;84.66;99422.81;5045845;28;20138;-90
2022/06/06 05:32:13;;;;;;;3.38;1.30;;;;;;;21.71;86.29;99419.19;5039449;28;20443;-88
2022/06/06 05:34:48;;;;;;;2.40;1.35;;;;;;;21.61;85.32;99400.09;5036695;28;20033;-87
2022/06/06 05:37:20;;;;;;;2.00;1.35;;;;;;;21.73;81.64;99426.16;5036097;28;20036;-87
2022/06/06 05:39:48;;;;;;;2.22;0.80;;;;;;;21.49;85.02;99390.16;5026910;28;20033;-86
2022/06/06 05:42:19;;;;;;;2.88;2.17;;;;;;;21.22;85.52;99330.13;5026498;28;20136;-86
2022/06/06 05:45:10;;;;;;;3.40;1.48;;;;;;;21.68;85.24;99346.91;5026412;28;20122;-88
2022/06/06 05:47:54;;;;;;;2.95;1.55;;;;;;;21.69;86.75;99364.72;5026780;28;20032;-86
2022/06/06 05:50:34;;;;;;;2.50;1.70;;;;;;;21.59;87.80;99386.78;5042534;28;20039;-86
2022/06/06 05:52:59;;;;;;;2.47;1.48;;;;;;;21.22;91.31;99407.91;5043611;28;20127;-85
2022/06/06 05:55:49;;;;;;;1.48;1.38;;;;;;;21.21;90.23;99406.22;5044895;28;20559;-86
2022/06/06 05:58:22;;;;;;;2.10;0.93;;;;;;;21.36;91.35;99409.72;5034825;28;20052;-85
2022/06/06 06:01:15;;;;;;;5.47;2.70;;;;;;;21.57;90.10;99430.81;5026705;28;20105;-86
2022/06/06 06:04:03;;;;;;;2.13;1.77;;;;;;;22.02;86.99;99412.63;5026851;28;20063;-86
2022/06/06 06:06:35;;;;;;;2.20;1.20;;;;;;;22.32;84.19;99423.16;5025282;28;20052;-86
2022/06/06 06:09:28;;;;;;;1.50;1.13;;;;;;;22.64;81.51;99433.50;5026527;28;20029;-87
2022/06/06 06:12:03;;;;;;;3.28;1.35;;;;;;;22.34;82.17;99406.94;5026459;28;20044;-86
2022/06/06 06:14:47;;;;;;;3.72;1.10;;;;;;;22.85;83.14;99416.88;5026129;28;20052;-87
2022/06/06 06:17:17;;;;;;;2.30;1.63;;;;;;;23.38;82.66;99389.81;5026731;28;20037;-85
2022/06/06 06:19:49;;;;;;;1.95;1.30;;;;;;;23.50;78.89;99380.81;5030436;28;20600;-88
2022/06/06 06:22:17;;;;;;;2.80;1.85;;;;;;;23.37;78.61;99393.44;5033713;28;20084;-86
2022/06/06 06:24:43;;;;;;;1.75;1.02;;;;;;;23.72;75.82;99385.47;5029991;28;20029;-86
2022/06/06 06:27:12;;;;;;;3.08;1.33;;;;;;;24.21;75.07;99390.88;5044749;28;20091;-85
2022/06/06 06:29:37;;;;;;;3.25;2.05;;;;;;;24.81;72.59;99424.00;5029678;28;20029;-86
2022/06/06 06:32:16;;;;;;;4.63;1.52;;;;;;;25.25;69.15;99446.56;5029785;28;20488;-88
2022/06/06 06:35:16;;;;;;;1.70;1.42;;;;;;;25.50;66.94;99414.94;5028927;28;20077;-87
2022/06/06 06:38:14;;;;;;;2.10;1.35;;;;;;;25.66;63.40;99428.06;5027562;28;20041;-88
2022/06/06 06:41:02;;;;;;;1.85;1.17;;;;;;;26.02;63.61;99448.47;5029420;28;20045;-88
2022/06/06 06:43:39;;;;;;;3.13;1.77;;;;;;;26.00;66.04;99463.13;5029340;28;20033;-88
2022/06/06 06:46:18;;;;;;;1.67;0.98;;;;;;;25.47;66.11;99390.88;5029474;28;20021;-86
2022/06/06 06:48:46;;;;;;;4.63;2.25;;;;;;;26.09;65.40;99460.50;5029841;28;20033;-88
2022/06/06 06:51:21;;;;;;;3.80;1.52;;;;;;;25.82;65.99;99423.06;5029336;28;20033;-87
2022/06/06 06:53:55;;;;;;;2.35;1.17;;;;;;;25.54;65.39;99470.41;5029657;28;20049;-88
2022/06/06 06:56:39;;;;;;;1.38;1.20;;;;;;;25.16;69.47;99472.47;5029235;28;20034;-87
2022/06/06 06:59:10;;;;;;;2.60;1.55;;;;;;;25.25;68.41;99470.88;5029574;28;20043;-89
2022/06/06 07:08:32;;;;;;;3.13;2.15;;;;;;;24.94;68.72;99465.19;5028991;28;20593;-88
2022/06/06 07:10:39;;;;;;;1.88;1.42;;;;;;;24.74;69.79;99469.44;5029123;28;20043;-87
2022/06/06 07:13:30;;;;;;;2.53;1.33;;;;;;;24.46;70.75;99459.91;5027733;28;20033;-88
2022/06/06 07:16:08;;;;;;;4.55;1.45;;;;;;;24.46;70.48;99468.84;5028435;28;20036;-88
2022/06/06 07:18:37;;;;;;;2.47;1.50;;;;;;;24.59;71.03;99498.47;5028615;28;20563;-87
2022/06/06 07:21:07;;;;;;;6.38;2.30;;;;;;;24.38;72.44;99500.09;5028637;28;20529;-86
2022/06/06 07:23:35;;;;;;;4.25;1.73;;;;;;;24.36;73.96;99524.44;5023704;28;20488;-86
2022/06/06 07:26:03;;;;;;;3.05;1.88;;;;;;;23.76;77.73;99504.59;5009099;28;20041;-86
2022/06/06 07:28:29;;;;;;;3.28;1.85;;;;;;;23.92;78.31;99540.22;5008077;28;20508;-86
2022/06/06 07:31:03;;;;;;;4.28;1.77;;;;;;;23.63;80.37;99526.16;5008542;28;20044;-87
2022/06/06 07:33:34;;;;;;;4.35;1.83;;;;;;;23.66;79.93;99535.84;5021750;28;20116;-85
2022/06/06 07:36:22;;;;;;;3.60;2.50;;;;;;;23.71;80.32;99560.59;5028305;28;20029;-85
2022/06/06 07:39:02;;;;;;;6.25;2.60;;;;;;;23.26;82.97;99570.97;5026762;28;20041;-85
2022/06/06 07:41:53;;;;;;;2.95;1.40;;;;;;;22.79;86.53;99581.31;5028461;28;20033;-84
2022/06/06 07:44:27;;;;;;;6.53;2.65;;;;;;;23.18;85.69;99579.56;5028162;28;20507;-85
2022/06/06 07:47:02;;;;;;;2.60;2.17;;;;;;;23.22;84.61;99532.66;5028127;28;20033;-86
2022/06/06 07:49:56;;;;;;;4.43;2.42;;;;;;;23.40;82.84;99552.00;5028171;28;20029;-86
2022/06/06 07:52:24;;;;;;;2.15;1.88;;;;;;;23.60;82.28;99564.94;5028533;28;20039;-86
2022/06/06 07:54:53;;;;;;;5.07;2.63;;;;;;;23.74;81.78;99566.66;5028228;28;20053;-85
2022/06/06 07:57:34;;;;;;;5.45;2.75;;;;;;;23.84;81.05;99534.53;5028349;28;20041;-84
2022/06/06 08:00:03;;;;;;;3.38;2.15;;;;;;;23.84;82.22;99531.84;5027990;28;20033;-85
2022/06/06 08:02:32;;;;;;;3.42;1.50;;;;;;;23.82;82.59;99517.63;5027609;28;20037;-84
2022/06/06 08:05:25;;;;;;;3.75;1.85;;;;;;;23.66;84.72;99512.47;5028244;28;20033;-85
2022/06/06 08:08:07;;;;;;;3.95;1.85;;;;;;;23.38;86.14;99514.44;5027612;28;20061;-85
2022/06/06 08:10:47;;;;;;;9.35;2.97;;;;;;;23.05;89.19;99475.47;5027859;28;20513;-84
2022/06/06 08:13:50;;;;;;;3.30;2.22;;;;;;;22.86;90.57;99462.47;5027746;28;20549;-85
2022/06/06 08:16:32;;;;;;;4.55;2.78;;;;;;;22.84;90.93;99485.06;5029686;28;20049;-85
2022/06/06 08:19:18;;;;;;;3.08;2.08;;;;;;;22.93;91.88;99489.78;5042794;28;20431;-85
2022/06/06 08:21:46;;;;;;;8.63;3.28;;;;;;;22.86;92.58;99496.56;5027356;28;20487;-85
2022/06/06 08:24:29;;;;;;;2.20;1.80;;;;;;;22.84;92.86;99490.44;5027747;28;20072;-85
2022/06/06 08:26:57;;;;;;;4.65;1.77;;;;;;;23.34;90.70;99480.66;5027651;28;20087;-85
2022/06/06 08:29:23;;;;;;;5.40;2.67;;;;;;;23.63;89.37;99490.31;5027367;28;20112;-85
2022/06/06 08:31:49;;;;;;;4.63;2.45;;;;;;;23.56;91.43;99473.75;5027394;28;20124;-85
2022/06/06 08:34:14;;;;;;;3.38;2.65;;;;;;;23.53;91.36;99503.56;5026461;28;20037;-85
2022/06/06 08:37:02;;;;;;;6.50;2.60;;;;;;;23.86;90.93;99558.69;5026826;28;20805;-85
2022/06/06 08:40:02;;;;;;;4.32;2.47;;;;;;;24.25;85.94;99560.28;5027029;28;20151;-85
2022/06/06 08:42:39;;;;;;;2.72;1.83;;;;;;;24.12;85.69;99538.75;5026828;28;20037;-85
2022/06/06 08:45:22;;;;;;;10.10;3.25;;;;;;;24.89;82.27;99563.66;5026255;28;20033;-85
2022/06/06 08:47:50;;;;;;;3.20;2.30;;;;;;;25.27;83.51;99573.31;5027247;28;20044;-84
2022/06/06 08:50:46;;;;;;;2.95;2.50;;;;;;;24.82;78.56;99520.09;5026384;28;20037;-84
2022/06/06 08:53:36;;;;;;;4.00;2.83;;;;;;;24.89;78.65;99575.31;5027056;28;20476;-83
2022/06/06 08:56:30;;;;;;;7.00;2.97;;;;;;;24.62;79.81;99572.88;5026669;28;20025;-85
2022/06/06 08:59:14;;;;;;;4.85;2.97;;;;;;;24.88;78.12;99587.06;5025916;28;20408;-86
2022/06/06 09:02:01;;;;;;;4.32;2.47;;;;;;;25.03;nan;99591.28;5026938;28;20072;-85
2022/06/06 09:04:47;;;;;;;3.55;2.85;;;;;;;25.22;75.88;99589.00;5026366;28;20037;-84
2022/06/06 09:07:25;;;;;;;3.72;2.03;;;;;;;25.05;75.26;99577.69;5027000;28;20033;-84
2022/06/06 09:10:09;;;;;;;4.53;2.20;;;;;;;24.65;77.58;99541.16;5026739;28;20045;-84
2022/06/06 09:12:57;;;;;;;4.53;3.30;;;;;;;24.36;80.16;99534.34;5026291;28;20033;-87
2022/06/06 09:16:00;;;;;;;2.53;1.92;;;;;;;24.28;80.62;99533.13;5025098;28;20041;-86
2022/06/06 09:18:40;;;;;;;4.88;3.03;;;;;;;24.13;81.89;99513.53;5026660;28;20029;-86
2022/06/06 09:21:11;;;;;;;7.38;3.75;;;;;;;23.95;84.33;99504.13;5026065;28;20029;-84
2022/06/06 09:24:14;;;;;;;5.60;3.17;;;;;;;23.89;83.99;99500.06;5026572;28;20048;-86
2022/06/06 09:26:56;;;;;;;5.38;2.25;;;;;;;23.90;83.30;99493.69;5026582;28;20580;-85
2022/06/06 09:29:36;;;;;;;3.63;2.15;;;;;;;24.13;81.77;99521.63;5026665;28;20041;-85
2022/06/06 09:32:17;;;;;;;4.45;2.70;;;;;;;24.58;79.27;99515.63;5026557;28;20037;-88
2022/06/06 09:35:00;;;;;;;5.22;2.67;;;;;;;24.86;77.75;99499.16;5025851;28;20037;-85
2022/06/06 09:38:01;;;;;;;5.30;2.38;;;;;;;25.52;73.55;99504.78;5026218;28;20037;-85
2022/06/06 09:41:14;;;;;;;3.00;2.00;;;;;;;25.74;72.61;99515.56;5035851;28;20044;-84
2022/06/06 09:44:02;;;;;;;7.47;3.53;;;;;;;25.77;72.63;99490.16;5014119;28;20046;-85
2022/06/06 09:46:40;;;;;;;5.63;2.25;;;;;;;25.99;73.33;99515.44;5006542;28;20077;-84
2022/06/06 09:49:08;;;;;;;6.13;3.25;;;;;;;26.13;70.88;99503.47;5007268;28;20099;-84
2022/06/06 09:51:39;;;;;;;4.93;3.13;;;;;;;26.26;70.33;99507.75;5020111;28;20056;-84
2022/06/06 10:07:07;;;;;;;7.05;3.67;;;;;;;27.13;64.99;99527.50;5077336;27;2034483;-88
2022/06/06 10:09:54;;;;;;;3.70;2.15;;;;;;;27.31;65.32;99546.69;5122888;28;20546;-90
2022/06/06 10:12:28;;;;;;;4.70;2.75;;;;;;;27.19;65.47;99556.75;5115948;28;20035;-88
2022/06/06 10:15:15;;;;;;;6.93;5.17;;;;;;;26.56;65.38;99554.81;5104255;28;20039;-88
2022/06/06 10:18:05;;;;;;;12.23;7.80;;;;;;;26.87;65.98;99551.41;5103524;28;20031;-90
2022/06/06 10:20:55;;;;;;;7.82;5.10;;;;;;;26.58;65.89;99547.41;5102445;28;20508;-90
2022/06/06 10:23:45;;;;;;;6.28;4.15;;;;;;;26.67;65.28;99544.97;5104209;28;20068;-90
2022/06/06 10:26:31;;;;;;;4.85;3.25;;;;;;;26.51;66.68;99521.91;5103831;28;20062;-91
2022/06/06 10:29:08;;;;;;;5.95;3.67;;;;;;;26.15;68.45;99515.00;5105338;27;20118;-91
2022/06/06 10:31:52;;;;;;;7.65;5.20;;;;;;;25.72;70.70;99503.19;5139007;27;20030;-91
2022/06/06 10:34:51;;;;;;;7.72;4.50;;;;;;;25.78;71.12;99537.78;5116730;27;20028;-90
2022/06/06 10:37:19;;;;;;;5.10;3.25;;;;;;;25.80;70.76;99572.78;5103822;28;20028;-90
2022/06/06 10:39:50;;;;;;;6.55;4.32;;;;;;;25.92;70.28;99583.44;5103932;28;20034;-89
2022/06/06 10:42:53;;;;;;;5.75;4.05;;;;;;;25.97;70.47;99595.75;5105561;28;20035;-89
2022/06/06 10:45:28;;;;;;;10.65;4.85;;;;;;;25.90;71.58;99600.75;5108060;28;20028;-89
2022/06/06 10:48:26;;;;;;;5.38;3.88;;;;;;;25.68;71.63;99555.72;5108992;28;20028;-89
2022/06/06 10:54:29;;;;;;;6.38;3.92;;;;;;;25.64;73.38;99570.44;5106583;28;20813;-89
2022/06/06 10:57:22;;;;;;;8.63;4.60;;;;;;;25.63;73.74;99574.13;5120746;27;20079;-85
2022/06/06 10:59:47;;;;;;;7.28;4.55;;;;;;;25.37;73.79;99572.50;5151854;27;20548;-87
2022/06/06 11:02:28;;;;;;;8.38;4.43;;;;;;;25.42;74.69;99587.47;5152022;27;20034;-88
2022/06/06 11:05:29;;;;;;;4.50;3.30;;;;;;;25.14;75.12;99568.88;5149515;27;20512;-85
2022/06/06 11:08:19;;;;;;;5.68;3.35;;;;;;;25.00;75.26;99588.81;5129767;27;20018;-85
2022/06/06 11:11:16;;;;;;;4.40;3.28;;;;;;;24.95;76.60;99582.09;5130876;27;20563;-89
2022/06/06 11:14:06;;;;;;;3.88;2.50;;;;;;;24.96;77.57;99581.09;5130698;27;20027;-88
2022/06/06 11:16:53;;;;;;;5.25;2.55;;;;;;;24.75;78.92;99587.16;5130913;27;20027;-88
2022/06/06 11:19:40;;;;;;;4.18;2.75;;;;;;;24.13;79.87;99588.16;5129133;27;20522;-88
2022/06/06 11:22:29;;;;;;;4.13;1.30;;;;;;;23.17;72.19;99562.59;5129544;27;20552;-87
2022/06/06 11:25:13;;;;;;;2.65;1.08;;;;;;;23.26;71.49;99555.69;5130807;27;20023;-89
2022/06/06 11:27:42;;;;;;;0.82;0.70;;;;;;;23.23;70.50;99550.50;5130324;27;20062;-86
2022/06/06 11:30:20;;;;;;;1.77;0.82;;;;;;;23.34;69.87;99536.31;5130219;27;20027;-87
2022/06/06 11:33:11;;;;;;;1.23;0.75;;;;;;;23.50;69.77;99536.94;5127953;27;20033;-87
2022/06/06 11:35:43;;;;;;;2.15;1.95;;;;;;;23.57;69.69;99511.31;5077958;28;20073;-88
2022/06/06 11:38:46;;;;;;;1.75;1.00;;;;;;;23.53;70.31;99533.19;5109194;28;20028;-88
2022/06/06 11:41:30;;;;;;;2.08;1.00;;;;;;;23.39;71.47;99535.00;5109110;28;20413;-88
2022/06/06 11:44:42;;;;;;;0.87;0.63;;;;;;;23.37;71.43;99542.34;5089640;28;20078;-87
2022/06/06 11:47:33;;;;;;;4.32;1.48;;;;;;;23.36;72.23;99546.00;5055828;28;20070;-87
2022/06/06 11:50:35;;;;;;;1.40;1.27;;;;;;;23.25;71.94;99553.97;5088603;28;20036;-85
2022/06/06 11:53:12;;;;;;;1.80;0.68;;;;;;;22.86;72.14;99534.19;5088751;28;20042;-87
2022/06/06 11:55:40;;;;;;;2.30;0.98;;;;;;;22.61;70.97;99522.44;5087959;28;20040;-86
2022/06/06 11:58:18;;;;;;;2.45;1.23;;;;;;;22.76;71.88;99533.13;5088993;28;20509;-87
2022/06/06 12:00:56;;;;;;;1.50;0.77;;;;;;;22.84;70.95;99502.03;5088884;28;20068;-88
2022/06/06 12:03:57;;;;;;;1.60;0.80;;;;;;;23.20;70.58;99499.59;5088574;28;20058;-86
2022/06/06 12:07:00;;;;;;;2.10;1.40;;;;;;;23.63;69.65;99515.38;5088214;28;20055;-89
2022/06/06 12:10:06;;;;;;;1.15;1.00;;;;;;;23.81;67.81;99499.72;5087723;28;20028;-90
2022/06/06 12:13:12;;;;;;;1.85;0.50;;;;;;;23.95;69.55;99498.75;5087214;28;20036;-89
2022/06/06 12:16:11;;;;;;;0.85;0.60;;;;;;;24.03;68.04;99490.09;5087207;28;20545;-90
2022/06/06 12:19:07;;;;;;;1.25;0.70;;;;;;;24.06;65.12;99496.09;5086986;28;20101;-88
2022/06/06 12:22:05;;;;;;;2.17;1.27;;;;;;;24.27;67.71;99506.28;5065345;28;20036;-89
2022/06/06 12:25:07;;;;;;;1.15;0.52;;;;;;;24.59;66.77;99487.69;5088353;28;20028;-89
2022/06/06 12:27:42;;;;;;;1.10;0.57;;;;;;;24.46;63.55;99514.69;5086126;28;20092;-88
2022/06/06 12:30:26;;;;;;;0.43;0.43;;;;;;;24.59;63.47;99514.66;5087700;28;20035;-90
2022/06/06 12:33:04;;;;;;;0.75;0.45;;;;;;;24.34;64.91;99493.19;5113949;27;20508;-90
2022/06/06 12:35:57;;;;;;;2.72;1.15;;;;;;;24.31;65.57;99489.75;5107751;28;20089;-91
2022/06/06 12:38:41;;;;;;;0.47;0.45;;;;;;;24.62;64.49;99508.16;5106920;28;20423;-88
2022/06/06 12:41:33;;;;;;;1.42;1.13;;;;;;;24.90;64.83;99504.22;5108807;28;20039;-88
2022/06/06 12:44:12;;;;;;;2.33;1.77;;;;;;;24.47;64.58;99492.16;5025712;28;20128;-88
2022/06/06 12:47:08;;;;;;;1.63;0.50;;;;;;;24.46;64.66;99513.81;5105577;28;20085;-88
2022/06/06 12:49:39;;;;;;;0.68;0.43;;;;;;;24.42;65.59;99493.47;5108433;28;20140;-88
2022/06/06 12:52:34;;;;;;;2.15;0.93;;;;;;;24.56;64.98;99506.78;5107774;28;20036;-87
2022/06/06 12:55:33;;;;;;;0.90;0.70;;;;;;;24.91;64.62;99507.75;5108228;28;20138;-89
2022/06/06 12:58:02;;;;;;;2.90;1.20;;;;;;;25.09;62.25;99509.00;5108081;28;20059;-88
2022/06/06 13:03:54;;;;;;;2.08;0.50;;;;;;;25.68;59.03;99512.50;5108190;28;20497;-88